createdAt,value
2022-07-27T00:02:42.058Z,23.10
2022-07-27T00:05:31.615Z,23.00
2022-07-27T00:08:24.095Z,23.00
2022-07-27T00:11:13.618Z,22.90
2022-07-27T00:14:03.135Z,22.80
2022-07-27T00:16:52.753Z,22.80
2022-07-27T00:19:42.501Z,22.70
2022-07-27T00:22:32.061Z,22.70
2022-07-27T00:25:23.202Z,22.70
2022-07-27T00:28:12.720Z,22.70
2022-07-27T00:31:02.292Z,22.70
2022-07-27T00:33:51.765Z,22.60
2022-07-27T00:36:41.221Z,22.60
2022-07-27T00:39:31.830Z,22.60
2022-07-27T00:42:28.036Z,22.60
2022-07-27T00:45:17.566Z,22.60
2022-07-27T00:48:07.607Z,22.60
2022-07-27T00:50:58.028Z,22.50
2022-07-27T00:53:48.750Z,22.60
2022-07-27T00:56:38.638Z,22.50
2022-07-27T00:59:29.825Z,22.50
2022-07-27T01:02:20.050Z,22.50
2022-07-27T01:05:12.587Z,22.50
2022-07-27T01:08:02.885Z,22.50
2022-07-27T01:10:53.581Z,22.50
2022-07-27T01:13:44.352Z,22.50
2022-07-27T01:16:35.221Z,22.40
2022-07-27T01:19:24.765Z,22.40
2022-07-27T01:22:15.658Z,22.40
2022-07-27T01:25:05.965Z,22.40
2022-07-27T01:27:55.365Z,22.40
2022-07-27T01:30:45.056Z,22.40
2022-07-27T01:33:34.498Z,22.40
2022-07-27T01:36:23.958Z,22.30
2022-07-27T01:39:15.999Z,22.30
2022-07-27T01:42:06.865Z,22.30
2022-07-27T01:44:56.342Z,22.30
2022-07-27T01:47:45.821Z,22.30
2022-07-27T01:50:35.550Z,22.30
2022-07-27T01:53:25.669Z,22.30
2022-07-27T01:56:16.601Z,22.30
2022-07-27T01:59:06.137Z,22.30
2022-07-27T02:01:56.103Z,22.20
2022-07-27T02:04:45.676Z,22.30
2022-07-27T02:07:35.186Z,22.20
2022-07-27T02:10:25.358Z,22.20
2022-07-27T02:13:22.745Z,22.20
2022-07-27T02:16:17.149Z,22.20
2022-07-27T02:19:07.118Z,22.20
2022-07-27T02:21:58.323Z,22.20
2022-07-27T02:24:47.696Z,22.20
2022-07-27T02:27:37.145Z,22.20
2022-07-27T02:30:28.049Z,22.20
2022-07-27T02:33:18.143Z,22.20
2022-07-27T02:36:08.577Z,22.20
2022-07-27T02:38:58.259Z,22.20
2022-07-27T02:41:49.214Z,22.20
2022-07-27T02:44:38.593Z,22.20
2022-07-27T02:47:29.436Z,22.10
2022-07-27T02:50:18.893Z,22.10
2022-07-27T02:53:08.355Z,22.00
2022-07-27T02:55:58.725Z,22.00
2022-07-27T02:58:48.157Z,22.00
2022-07-27T03:01:38.104Z,22.00
2022-07-27T03:04:29.068Z,21.90
2022-07-27T03:07:18.563Z,21.90
2022-07-27T03:10:09.372Z,21.90
2022-07-27T03:12:59.341Z,21.80
2022-07-27T03:15:48.781Z,21.80
2022-07-27T03:18:38.360Z,21.80
2022-07-27T03:21:29.138Z,21.80
2022-07-27T03:24:18.612Z,21.70
2022-07-27T03:27:08.024Z,21.70
2022-07-27T03:29:57.920Z,21.70
2022-07-27T03:32:48.268Z,21.70
2022-07-27T03:35:37.708Z,21.70
2022-07-27T03:38:28.507Z,21.60
2022-07-27T03:41:18.323Z,21.60
2022-07-27T03:44:08.165Z,21.60
2022-07-27T03:46:57.595Z,21.50
2022-07-27T03:49:47.778Z,21.50
2022-07-27T03:52:37.201Z,21.50
2022-07-27T03:55:28.017Z,21.50
2022-07-27T03:58:18.116Z,21.40
2022-07-27T04:01:07.557Z,21.40
2022-07-27T04:03:56.971Z,21.40
2022-07-27T04:06:46.457Z,21.40
2022-07-27T04:09:37.689Z,21.40
2022-07-27T04:12:30.302Z,21.30
2022-07-27T04:15:21.549Z,21.30
2022-07-27T04:18:10.885Z,21.30
2022-07-27T04:21:03.338Z,21.20
2022-07-27T04:23:52.673Z,21.20
2022-07-27T04:26:42.082Z,21.20
2022-07-27T04:29:32.908Z,21.20
2022-07-27T04:32:23.806Z,21.20
2022-07-27T04:35:13.586Z,21.20
2022-07-27T04:38:02.956Z,21.10
2022-07-27T04:40:57.816Z,21.10
2022-07-27T04:43:47.768Z,21.10
2022-07-27T04:46:38.628Z,21.10
2022-07-27T04:49:28.177Z,21.10
2022-07-27T04:52:17.808Z,21.10
2022-07-27T04:55:08.725Z,21.10
2022-07-27T04:57:58.102Z,21.10
2022-07-27T05:00:47.655Z,21.10
2022-07-27T05:03:38.646Z,21.10
2022-07-27T05:06:28.008Z,21.10
2022-07-27T05:09:22.499Z,21.10
2022-07-27T05:12:12.202Z,21.10
2022-07-27T05:15:01.582Z,21.10
2022-07-27T05:17:52.272Z,21.00
2022-07-27T05:20:43.516Z,21.00
2022-07-27T05:23:32.904Z,21.00
2022-07-27T05:26:23.245Z,21.00
2022-07-27T05:29:13.165Z,21.00
2022-07-27T05:32:02.857Z,21.00
2022-07-27T05:34:52.288Z,21.00
2022-07-27T05:37:43.142Z,21.00
2022-07-27T05:40:33.118Z,21.00
2022-07-27T05:43:22.535Z,21.00
2022-07-27T05:46:11.978Z,21.00
2022-07-27T05:49:02.294Z,21.00
2022-07-27T05:51:52.100Z,21.00
2022-07-27T05:54:42.897Z,21.10
2022-07-27T05:57:32.406Z,21.10
2022-07-27T06:00:21.913Z,21.10
2022-07-27T06:03:11.446Z,21.10
2022-07-27T06:06:18.770Z,21.10
2022-07-27T06:09:08.393Z,21.10
2022-07-27T06:11:59.277Z,21.10
2022-07-27T06:14:51.200Z,21.20
2022-07-27T06:17:42.337Z,21.10
2022-07-27T06:20:32.295Z,21.20
2022-07-27T06:23:21.615Z,21.20
2022-07-27T06:26:11.014Z,21.20
2022-07-27T06:29:01.811Z,21.20
2022-07-27T06:31:51.330Z,21.20
2022-07-27T06:34:43.282Z,21.20
2022-07-27T06:37:32.985Z,21.20
2022-07-27T06:40:23.772Z,21.20
2022-07-27T06:43:15.049Z,21.20
2022-07-27T06:46:14.427Z,21.20
2022-07-27T06:49:04.013Z,21.30
2022-07-27T06:51:53.599Z,21.30
2022-07-27T06:54:43.488Z,21.30
2022-07-27T06:57:33.237Z,21.30
2022-07-27T07:00:23.322Z,21.40
2022-07-27T07:03:14.244Z,21.40
2022-07-27T07:06:04.025Z,21.50
2022-07-27T07:08:53.789Z,21.50
2022-07-27T07:11:43.229Z,21.50
2022-07-27T07:14:32.657Z,21.60
2022-07-27T07:17:22.112Z,21.60
2022-07-27T07:20:14.228Z,21.70
2022-07-27T07:23:04.008Z,21.70
2022-07-27T07:25:53.626Z,21.80
2022-07-27T07:28:43.263Z,21.90
2022-07-27T07:31:33.057Z,21.90
2022-07-27T07:34:22.572Z,22.00
2022-07-27T07:37:13.318Z,22.00
2022-07-27T07:43:14.592Z,22.20
2022-07-27T07:46:04.431Z,22.30
2022-07-27T07:48:54.159Z,22.30
2022-07-27T07:51:43.970Z,22.40
2022-07-27T07:54:35.020Z,22.40
2022-07-27T07:57:25.321Z,22.50
2022-07-27T08:00:16.585Z,22.60
2022-07-27T08:03:06.252Z,22.70
2022-07-27T08:05:55.804Z,22.70
2022-07-27T08:08:45.217Z,22.80
2022-07-27T08:11:36.288Z,22.80
2022-07-27T08:14:26.501Z,22.90
2022-07-27T08:17:17.141Z,22.90
2022-07-27T08:20:08.983Z,22.90
2022-07-27T08:22:58.415Z,23.00
2022-07-27T08:25:48.158Z,23.00
2022-07-27T08:28:39.025Z,23.00
2022-07-27T08:31:52.368Z,23.10
2022-07-27T08:34:37.995Z,23.30
2022-07-27T08:37:27.443Z,23.50
2022-07-27T08:43:27.736Z,24.00
2022-07-27T08:46:20.001Z,24.30
2022-07-27T08:49:10.094Z,24.50
2022-07-27T08:52:00.733Z,24.80
2022-07-27T08:54:50.954Z,25.00
2022-07-27T08:57:40.561Z,25.20
2022-07-27T09:00:30.846Z,25.30
2022-07-27T09:03:24.124Z,25.50
2022-07-27T09:06:13.730Z,25.60
2022-07-27T09:09:03.161Z,25.70
2022-07-27T09:12:11.627Z,25.80
2022-07-27T09:15:15.101Z,25.90
2022-07-27T09:18:19.859Z,25.90
2022-07-27T09:21:19.018Z,25.90
2022-07-27T09:24:23.491Z,25.90
2022-07-27T09:27:32.071Z,25.90
2022-07-27T09:30:23.390Z,25.90
2022-07-27T09:33:12.853Z,25.80
2022-07-27T09:36:02.639Z,25.80
2022-07-27T09:39:00.162Z,25.80
2022-07-27T09:41:53.827Z,25.80
2022-07-27T09:44:46.742Z,25.90
2022-07-27T09:47:42.824Z,25.90
2022-07-27T09:50:35.565Z,25.90
2022-07-27T09:53:42.272Z,25.90
2022-07-27T09:56:34.595Z,25.90
2022-07-27T09:59:24.093Z,25.90
2022-07-27T10:02:17.750Z,26.00
2022-07-27T10:05:08.557Z,26.10
2022-07-27T10:07:58.129Z,26.10
2022-07-27T10:10:48.018Z,26.10
2022-07-27T10:13:43.971Z,26.20
2022-07-27T10:16:35.728Z,26.20
2022-07-27T10:19:32.637Z,26.20
2022-07-27T10:22:54.389Z,26.30
2022-07-27T10:25:45.938Z,26.40
2022-07-27T10:28:53.127Z,26.50
2022-07-27T10:31:44.763Z,26.70
2022-07-27T10:34:38.034Z,26.90
2022-07-27T10:37:29.943Z,27.10
2022-07-27T10:40:36.528Z,27.30
2022-07-27T10:43:25.972Z,27.50
2022-07-27T10:46:21.851Z,27.80
2022-07-27T10:49:21.680Z,28.10
2022-07-27T10:52:45.068Z,28.30
2022-07-27T10:55:51.652Z,28.70
2022-07-27T10:58:49.211Z,29.10
2022-07-27T11:01:58.391Z,29.50
2022-07-27T11:04:51.728Z,29.80
2022-07-27T11:08:05.021Z,30.00
2022-07-27T11:10:56.133Z,30.10
2022-07-27T11:13:46.360Z,30.20
2022-07-27T11:16:54.752Z,30.30
2022-07-27T11:19:46.843Z,30.30
2022-07-27T11:25:59.231Z,30.20
2022-07-27T11:28:48.837Z,30.20
2022-07-27T11:31:55.263Z,30.30
2022-07-27T11:34:46.832Z,30.30
2022-07-27T11:37:36.597Z,30.50
2022-07-27T11:43:56.739Z,30.70
2022-07-27T11:46:50.814Z,30.80
2022-07-27T11:49:41.551Z,30.80
2022-07-27T11:52:31.360Z,30.80
2022-07-27T11:55:21.437Z,30.60
2022-07-27T11:58:21.533Z,30.50
2022-07-27T12:01:11.659Z,30.50
2022-07-27T12:04:16.264Z,30.50
2022-07-27T12:07:11.681Z,30.40
2022-07-27T12:10:07.893Z,30.30
2022-07-27T12:12:57.406Z,30.10
2022-07-27T12:15:57.958Z,30.00
2022-07-27T12:18:48.324Z,29.90
2022-07-27T12:21:39.322Z,29.70
2022-07-27T12:24:37.382Z,29.60
2022-07-27T12:27:29.089Z,29.50
2022-07-27T12:30:20.183Z,29.30
2022-07-27T12:33:27.203Z,29.20
2022-07-27T12:36:27.490Z,29.00
2022-07-27T12:39:29.913Z,28.80
2022-07-27T12:42:19.394Z,28.70
2022-07-27T12:45:18.796Z,28.60
2022-07-27T12:48:11.220Z,28.50
2022-07-27T12:51:03.800Z,28.40
2022-07-27T12:53:53.870Z,28.30
2022-07-27T12:56:44.776Z,28.20
2022-07-27T12:59:34.374Z,28.20
2022-07-27T13:02:23.864Z,28.10
2022-07-27T13:05:17.629Z,28.00
2022-07-27T13:08:08.199Z,27.90
2022-07-27T13:11:00.871Z,27.80
2022-07-27T13:13:51.856Z,27.70
2022-07-27T13:16:41.329Z,27.60
2022-07-27T13:19:30.943Z,27.50
2022-07-27T13:22:20.879Z,27.40
2022-07-27T13:25:16.295Z,27.30
2022-07-27T13:28:06.913Z,27.30
2022-07-27T13:30:58.072Z,27.30
2022-07-27T13:33:47.528Z,27.30
2022-07-27T13:36:40.614Z,27.30
2022-07-27T13:39:30.026Z,27.30
2022-07-27T13:42:23.951Z,27.40
2022-07-27T13:45:13.540Z,27.40
2022-07-27T13:48:04.385Z,27.40
2022-07-27T13:50:54.177Z,27.50
2022-07-27T13:53:43.630Z,27.50
2022-07-27T13:56:34.552Z,27.50
2022-07-27T13:59:24.094Z,27.50
2022-07-27T14:02:14.717Z,27.50
2022-07-27T14:05:08.648Z,27.50
2022-07-27T14:07:58.145Z,27.40
2022-07-27T14:10:48.965Z,27.30
2022-07-27T14:13:40.870Z,27.20
2022-07-27T14:16:30.309Z,27.20
2022-07-27T14:19:20.415Z,27.10
2022-07-27T14:22:12.135Z,27.10
2022-07-27T14:25:01.698Z,27.10
2022-07-27T14:27:51.286Z,27.10
2022-07-27T14:30:40.787Z,27.10
2022-07-27T14:33:36.840Z,27.10
2022-07-27T14:36:26.627Z,27.10
2022-07-27T14:39:17.895Z,27.10
2022-07-27T14:42:07.854Z,27.10
2022-07-27T14:44:57.353Z,27.10
2022-07-27T14:47:46.799Z,27.20
2022-07-27T14:50:36.290Z,27.30
2022-07-27T14:53:26.068Z,27.30
2022-07-27T14:56:17.423Z,27.40
2022-07-27T14:59:07.074Z,27.40
2022-07-27T15:01:56.445Z,27.40
2022-07-27T15:04:45.875Z,27.30
2022-07-27T15:07:36.383Z,27.30
2022-07-27T15:10:25.866Z,27.10
2022-07-27T15:13:16.652Z,27.00
2022-07-27T15:16:07.397Z,26.90
2022-07-27T15:18:56.883Z,26.80
2022-07-27T15:21:47.142Z,26.70
2022-07-27T15:24:38.469Z,26.60
2022-07-27T15:27:28.013Z,26.60
2022-07-27T15:30:19.035Z,26.50
2022-07-27T15:33:08.958Z,26.50
2022-07-27T15:35:58.450Z,26.50
2022-07-27T15:38:48.107Z,26.50
2022-07-27T15:41:39.369Z,26.50
2022-07-27T15:44:28.716Z,26.50
2022-07-27T15:47:19.558Z,26.50
2022-07-27T15:50:09.769Z,26.50
2022-07-27T15:52:59.482Z,26.50
2022-07-27T15:55:51.524Z,26.40
2022-07-27T15:58:41.133Z,26.40
2022-07-27T16:01:35.431Z,26.30
2022-07-27T16:04:27.243Z,26.20
2022-07-27T16:07:16.823Z,26.10
2022-07-27T16:10:07.698Z,26.00
2022-07-27T16:12:57.327Z,26.00
2022-07-27T16:16:04.149Z,25.90
2022-07-27T16:18:53.833Z,25.90
2022-07-27T16:21:54.179Z,25.80
2022-07-27T16:24:45.029Z,25.80
2022-07-27T16:27:34.583Z,25.80
2022-07-27T16:30:24.239Z,25.90
2022-07-27T16:33:13.653Z,25.90
2022-07-27T16:36:03.177Z,26.00
2022-07-27T16:38:54.740Z,26.00
2022-07-27T16:41:44.298Z,26.00
2022-07-27T16:44:35.615Z,26.00
2022-07-27T16:47:25.006Z,25.90
2022-07-27T16:50:14.459Z,25.90
2022-07-27T16:53:03.914Z,25.90
2022-07-27T16:55:57.693Z,25.90
2022-07-27T16:58:47.133Z,25.90
2022-07-27T17:01:36.689Z,25.90
2022-07-27T17:04:27.959Z,25.90
2022-07-27T17:07:17.573Z,25.80
2022-07-27T17:10:08.280Z,25.80
2022-07-27T17:12:59.298Z,25.70
2022-07-27T17:15:49.050Z,25.70
2022-07-27T17:18:40.444Z,25.60
2022-07-27T17:21:29.998Z,25.50
2022-07-27T17:24:19.347Z,25.50
2022-07-27T17:27:08.811Z,25.30
2022-07-27T17:29:59.512Z,25.20
2022-07-27T17:32:48.934Z,25.10
2022-07-27T17:35:38.617Z,25.00
2022-07-27T17:38:28.224Z,24.90
2022-07-27T17:41:24.114Z,24.80
2022-07-27T17:44:14.254Z,24.60
2022-07-27T17:47:05.148Z,24.60
2022-07-27T17:49:54.482Z,24.40
2022-07-27T17:52:43.964Z,24.30
2022-07-27T17:55:34.239Z,24.20
2022-07-27T17:58:30.168Z,24.10
2022-07-27T18:01:46.143Z,24.00
2022-07-27T18:04:38.762Z,23.90
2022-07-27T18:07:29.081Z,23.80
2022-07-27T18:10:27.211Z,23.70
2022-07-27T18:13:16.744Z,23.60
2022-07-27T18:16:06.463Z,23.50
2022-07-27T18:18:56.027Z,23.40
2022-07-27T18:21:46.963Z,23.40
2022-07-27T18:24:36.506Z,23.30
2022-07-27T18:27:26.128Z,23.20
2022-07-27T18:30:31.314Z,23.10
2022-07-27T18:33:36.767Z,23.00
2022-07-27T18:36:26.755Z,22.90
2022-07-27T18:39:17.591Z,22.80
2022-07-27T18:42:07.081Z,22.80
2022-07-27T18:44:56.720Z,22.70
2022-07-27T18:47:49.339Z,22.60
2022-07-27T18:50:40.207Z,22.50
2022-07-27T18:53:29.862Z,22.40
2022-07-27T18:56:21.460Z,22.30
2022-07-27T18:59:11.176Z,22.20
2022-07-27T19:02:00.870Z,22.10
2022-07-27T19:04:53.834Z,22.00
2022-07-27T19:07:44.725Z,21.90
2022-07-27T19:10:35.998Z,21.80
2022-07-27T19:13:26.804Z,21.70
2022-07-27T19:16:16.350Z,21.60
2022-07-27T19:19:11.616Z,21.50
2022-07-27T19:22:03.755Z,21.50
2022-07-27T19:24:55.053Z,21.30
2022-07-27T19:27:45.326Z,21.30
2022-07-27T19:30:38.743Z,21.20
2022-07-27T19:33:28.167Z,21.10
2022-07-27T19:36:17.742Z,21.00
2022-07-27T19:39:08.274Z,20.90
2022-07-27T19:41:57.952Z,20.80
2022-07-27T19:44:47.796Z,20.70
2022-07-27T19:47:38.684Z,20.70
2022-07-27T19:50:28.228Z,20.60
2022-07-27T19:53:18.596Z,20.60
2022-07-27T19:56:08.048Z,20.50
2022-07-27T19:58:57.539Z,20.40
2022-07-27T20:01:47.852Z,20.40
2022-07-27T20:04:41.430Z,20.30
2022-07-27T20:07:30.995Z,20.30
2022-07-27T20:10:21.622Z,20.20
2022-07-27T20:13:11.197Z,20.10
2022-07-27T20:16:00.671Z,20.10
2022-07-27T20:18:50.179Z,20.00
2022-07-27T20:21:41.086Z,20.00
2022-07-27T20:24:30.539Z,19.90
2022-07-27T20:27:20.365Z,19.90
2022-07-27T20:30:12.446Z,19.80
2022-07-27T20:33:02.434Z,19.80
2022-07-27T20:35:51.800Z,19.70
2022-07-27T20:38:42.917Z,19.70
2022-07-27T20:41:32.304Z,19.60
2022-07-27T20:44:21.988Z,19.60
2022-07-27T20:47:12.268Z,19.60
2022-07-27T20:50:01.645Z,19.50
2022-07-27T20:52:51.050Z,19.50
2022-07-27T20:55:42.816Z,19.50
2022-07-27T20:58:33.270Z,19.40
2022-07-27T21:01:23.039Z,19.40
2022-07-27T21:04:12.491Z,19.40
2022-07-27T21:07:01.834Z,19.30
2022-07-27T21:09:51.293Z,19.30
2022-07-27T21:12:42.153Z,19.20
2022-07-27T21:15:33.829Z,19.20
2022-07-27T21:18:23.694Z,19.20
2022-07-27T21:21:13.135Z,19.10
2022-07-27T21:24:19.920Z,19.00
2022-07-27T21:27:09.422Z,19.00
2022-07-27T21:30:00.242Z,19.00
2022-07-27T21:32:49.735Z,18.90
2022-07-27T21:35:39.702Z,18.90
2022-07-27T21:38:29.118Z,18.80
2022-07-27T21:41:18.540Z,18.80
2022-07-27T21:44:08.098Z,18.80
2022-07-27T21:46:58.971Z,18.70
2022-07-27T21:49:50.069Z,18.60
2022-07-27T21:52:39.578Z,18.60
2022-07-27T21:55:28.942Z,18.50
2022-07-27T21:58:18.382Z,18.50
2022-07-27T22:01:09.153Z,18.40
2022-07-27T22:04:00.090Z,18.40
2022-07-27T22:06:49.529Z,18.30
2022-07-27T22:09:42.366Z,18.30
2022-07-27T22:12:33.557Z,18.20
2022-07-27T22:15:22.909Z,18.20
2022-07-27T22:18:12.315Z,18.10
2022-07-27T22:21:03.133Z,18.00
2022-07-27T22:23:52.589Z,18.00
2022-07-27T22:26:42.003Z,18.00
2022-07-27T22:29:31.377Z,17.90
2022-07-27T22:32:22.920Z,17.80
2022-07-27T22:35:12.489Z,17.80
2022-07-27T22:38:03.382Z,17.70
2022-07-27T22:40:52.743Z,17.70
2022-07-27T22:43:42.216Z,17.60
2022-07-27T22:46:31.687Z,17.50
2022-07-27T22:49:22.704Z,17.50
2022-07-27T22:52:12.438Z,17.40
2022-07-27T22:55:04.520Z,17.40
2022-07-27T22:57:53.902Z,17.30
2022-07-27T23:00:43.366Z,17.30
2022-07-27T23:03:32.732Z,17.20
2022-07-27T23:06:22.115Z,17.20
2022-07-27T23:09:12.311Z,17.10
2022-07-27T23:12:03.232Z,17.10
2022-07-27T23:14:52.651Z,17.10
2022-07-27T23:17:41.959Z,17.00
2022-07-27T23:20:31.291Z,17.00
2022-07-27T23:23:21.722Z,16.90
2022-07-27T23:26:11.045Z,16.90
2022-07-27T23:29:02.130Z,16.80
2022-07-27T23:31:51.534Z,16.80
2022-07-27T23:34:41.098Z,16.80
2022-07-27T23:37:30.467Z,16.70
2022-07-27T23:40:20.023Z,16.70
2022-07-27T23:43:09.315Z,16.70
2022-07-27T23:46:00.171Z,16.60
2022-07-27T23:48:49.814Z,16.60
2022-07-27T23:51:39.180Z,16.50
2022-07-27T23:54:28.549Z,16.50
2022-07-27T23:57:17.777Z,16.40
